Latest Weather Observations for Minlaton Airport

IDS60801

Issued at 4:05 pm CST Friday 25 July 2014 (issued every 30 minutes, with the page automatically refreshed every 10 minutes)

About weather observations | Map of weather stations | Latest weather observations for SA | Other Formats
Station Details ID: 022031 Name: MINLATON AERO Lat: -34.75 Lon: 137.53 Height: 32.0 m
Data from the previous 72 hours. | See also: Recent months at Minlaton Airport
Date/Time
CST
Temp
°C
App
Temp
°C
Dew
Point
Rel
Hum
%
Delta-T
°C
Wind Press
QNH
hPa
Press
MSL
hPa
Rain
since 9 am
mm
Dir
 
Spd
km/h
Gust
km/h
Spd
kts
Gust
kts
25/04:00pm 14.6 11.4 11.9 84 1.5 W 20 26 11 14 1019.7 - 0.0
25/03:30pm 14.8 11.3 12.1 84 1.5 W 22 28 12 15 1019.4 1019.5 0.0
25/03:00pm 14.6 10.3 11.9 84 1.5 W 26 32 14 17 1019.1 1019.2 0.0
25/02:30pm 14.7 10.4 12.0 84 1.5 W 26 32 14 17 1018.9 1019.0 0.0
25/02:00pm 14.9 10.8 12.6 86 1.3 W 26 32 14 17 1018.7 - 0.0
25/01:30pm 14.7 10.5 12.4 86 1.3 W 26 32 14 17 1018.7 1018.8 0.0
25/01:00pm 14.9 10.8 12.8 87 1.2 W 26 32 14 17 1018.8 - 0.0
25/12:30pm 14.8 11.8 12.7 87 1.2 W 20 26 11 14 1018.9 1019.0 0.0
25/12:00pm 14.9 12.1 13.1 89 1.0 W 20 28 11 15 1019.1 1019.2 0.0
25/11:30am 13.3 10.0 11.7 90 0.9 W 20 26 11 14 1019.3 1019.4 0.0
25/11:00am 13.3 9.7 11.7 90 0.9 W 22 32 12 17 1019.4 - 0.0
25/10:30am 14.0 10.1 12.2 89 1.0 WNW 24 32 13 17 1019.2 1019.3 0.0
25/10:00am 13.2 9.9 11.6 90 0.9 WNW 20 28 11 15 1019.0 - 0.0
25/09:30am 13.2 10.2 11.8 91 0.7 WNW 19 24 10 13 1018.7 1018.8 0.0
25/09:00am 12.9 9.7 11.3 90 0.8 WNW 19 24 10 13 1018.2 1018.2 1.2
25/08:30am 12.8 10.0 11.4 91 0.7 WNW 17 20 9 11 1017.7 1017.7 1.2
25/08:00am 12.3 9.1 11.2 93 0.6 WNW 19 24 10 13 1017.4 - 1.2
25/07:30am 12.0 9.1 10.9 93 0.6 WNW 17 24 9 13 1017.0 1017.0 1.2
25/07:00am 12.1 9.2 11.0 93 0.6 WNW 17 20 9 11 1016.6 - 1.2
25/06:30am 12.2 9.0 11.1 93 0.6 WNW 19 24 10 13 1016.3 1016.3 1.2
25/06:00am 12.2 9.3 11.1 93 0.6 WNW 17 22 9 12 1015.8 1015.8 1.2
25/05:30am 12.2 9.0 11.1 93 0.6 WNW 19 22 10 12 1015.5 1015.5 1.2
25/05:00am 12.1 9.2 11.0 93 0.6 NW 17 20 9 11 1015.1 - 1.2
25/04:30am 12.2 9.3 10.9 92 0.7 NW 17 20 9 11 1014.7 1014.7 1.2
25/04:00am 12.4 9.0 11.1 92 0.7 NW 20 28 11 15 1014.6 - 1.2
25/03:30am 12.3 8.8 11.0 92 0.7 NW 20 26 11 14 1014.4 1014.4 1.2
25/03:00am 12.5 9.1 11.4 93 0.6 WNW 20 28 11 15 1014.2 1014.2 1.2
25/02:30am 12.4 9.6 11.3 93 0.6 WNW 17 20 9 11 1014.0 1014.0 1.2
25/02:00am 12.2 9.0 11.1 93 0.6 WNW 19 24 10 13 1013.6 - 1.2
25/01:30am 12.4 9.2 11.1 92 0.7 WNW 19 22 10 12 1013.4 1013.4 1.2
25/01:00am 12.4 8.9 11.0 91 0.7 WNW 20 26 11 14 1013.2 - 1.2
25/12:30am 12.2 7.9 10.9 92 0.7 WNW 24 32 13 17 1013.0 1013.0 1.2
25/12:00am 12.4 7.4 10.8 90 0.8 WNW 28 35 15 19 1012.9 1012.9 1.2
 
Date/Time
CST
Temp
°C
App
Temp
°C
Dew
Point
Rel
Hum
%
Delta-T
°C
Wind Press
QNH
hPa
Press
MSL
hPa
Rain
since 9 am
mm
Dir
 
Spd
km/h
Gust
km/h
Spd
kts
Gust
kts
24/11:30pm 12.2 7.6 10.9 92 0.7 WNW 26 32 14 17 1012.8 1012.8 1.2
24/11:00pm 12.3 8.1 11.0 92 0.7 WNW 24 32 13 17 1012.7 - 1.2
24/10:30pm 12.5 7.5 11.1 91 0.7 WNW 28 35 15 19 1012.7 1012.7 1.2
24/10:00pm 12.5 9.1 11.2 92 0.7 WNW 20 24 11 13 1012.6 - 1.0
24/09:30pm 12.6 8.8 11.2 91 0.7 W 22 28 12 15 1012.3 1012.3 0.4
24/09:00pm 12.8 9.1 11.4 91 0.7 WNW 22 28 12 15 1012.2 1012.2 0.4
24/08:30pm 12.7 10.4 11.6 93 0.6 WNW 15 20 8 11 1012.0 1012.0 0.4
24/08:00pm 12.8 9.4 11.4 91 0.7 WNW 20 26 11 14 1011.7 - 0.4
24/07:30pm 12.7 8.1 10.9 89 0.9 W 26 33 14 18 1011.4 1011.4 0.4
24/07:00pm 12.6 8.4 11.2 91 0.7 W 24 33 13 18 1011.1 - 0.4
24/06:30pm 12.5 8.3 11.2 92 0.7 W 24 28 13 15 1010.6 1010.6 0.4
24/06:00pm 12.5 6.8 11.2 92 0.7 W 32 39 17 21 1010.1 1010.1 0.4
24/05:30pm 12.5 6.2 11.2 92 0.7 W 35 48 19 26 1009.6 1009.6 0.0
24/05:27pm 12.5 5.8 11.1 91 0.7 W 37 48 20 26 1009.5 - 0.0
24/05:10pm 13.0 8.0 11.1 88 1.0 WNW 28 46 15 25 1009.2 - 0.0
24/05:00pm 13.2 7.9 11.1 87 1.1 NW 30 37 16 20 1009.1 - 0.0
24/04:30pm 13.1 7.2 10.6 85 1.3 WNW 32 41 17 22 1008.8 1008.8 0.0
24/04:00pm 14.1 9.3 11.6 85 1.3 WNW 28 33 15 18 1008.6 - 0.0
24/03:30pm 14.5 10.2 12.2 86 1.3 WNW 26 32 14 17 1008.4 1008.4 0.0
24/03:00pm 13.8 8.5 11.3 85 1.3 W 30 37 16 20 1008.0 1008.0 0.0
24/02:30pm 13.9 8.4 11.9 88 1.1 W 32 41 17 22 1007.6 1007.6 0.0
24/02:00pm 14.0 7.6 12.0 88 1.1 WNW 37 44 20 24 1007.3 - 0.0
24/01:30pm 13.8 6.5 11.7 87 1.1 WNW 41 54 22 29 1007.0 1007.0 0.0
24/01:00pm 14.4 9.0 12.1 86 1.2 NW 32 44 17 24 1007.1 - 0.0
24/12:30pm 14.3 8.8 11.8 85 1.3 NW 32 39 17 21 1007.4 1007.4 0.0
24/12:00pm 14.6 9.7 12.6 88 1.1 NW 30 39 16 21 1007.6 1007.6 0.0
24/11:30am 14.2 8.6 12.1 87 1.1 NW 33 43 18 23 1007.9 1007.9 0.0
24/11:00am 14.0 8.5 11.9 87 1.1 NW 32 39 17 21 1008.0 - 0.0
24/10:30am 13.7 7.6 11.7 88 1.1 NW 35 43 19 23 1007.9 1007.9 0.0
24/10:00am 13.4 8.6 11.5 88 1.0 NW 28 37 15 20 1007.8 - 0.0
24/09:30am 13.1 8.6 11.3 89 1.0 WNW 26 35 14 19 1007.5 1007.5 0.0
24/09:00am 12.5 8.7 11.2 92 0.7 NW 22 30 12 16 1007.1 1007.1 12.6
24/08:30am 12.3 6.8 10.7 90 0.8 WNW 30 39 16 21 1006.5 1006.5 12.6
24/08:00am 12.0 7.3 10.7 92 0.7 NW 26 33 14 18 1006.1 - 12.6
24/07:30am 11.5 6.3 10.1 91 0.7 WNW 28 35 15 19 1005.6 1005.6 12.6
24/07:00am 11.7 6.2 10.4 92 0.7 WNW 30 39 16 21 1005.1 - 12.6
24/06:30am 12.0 6.9 10.7 92 0.7 WNW 28 39 15 21 1004.6 1004.6 11.8
24/06:00am 11.7 8.2 10.8 94 0.5 WNW 20 30 11 16 1004.2 1004.2 11.8
24/05:30am 11.0 7.4 9.9 93 0.6 WNW 19 24 10 13 1003.9 1003.9 11.4
24/05:00am 11.1 7.6 10.3 95 0.4 NW 19 24 10 13 1003.6 - 11.4
24/04:30am 10.9 6.8 10.1 95 0.4 N 22 26 12 14 1003.0 1003.0 9.8
24/04:00am 10.5 6.6 9.6 94 0.5 N 20 24 11 13 1003.1 - 9.8
24/03:30am 10.6 6.4 9.7 94 0.5 N 22 28 12 15 1003.1 1003.1 9.8
24/03:00am 11.0 5.7 9.8 92 0.6 N 28 37 15 20 1003.4 1003.4 9.8
24/02:30am 11.2 5.5 9.8 91 0.7 N 30 39 16 21 1003.4 1003.4 9.8
24/02:00am 11.2 5.8 9.6 90 0.8 N 28 37 15 20 1003.7 - 9.8
24/01:30am 11.1 5.0 9.7 91 0.7 NNE 32 44 17 24 1003.9 1003.9 9.8
24/01:00am 10.7 4.4 9.6 93 0.6 NNE 33 48 18 26 1004.1 - 9.8
24/12:30am 10.1 3.5 8.7 91 0.7 NE 33 43 18 23 1004.5 1004.5 9.0
24/12:00am 10.0 3.3 8.3 89 0.8 NE 33 41 18 22 1005.1 1005.1 8.0
 
Date/Time
CST
Temp
°C
App
Temp
°C
Dew
Point
Rel
Hum
%
Delta-T
°C
Wind Press
QNH
hPa
Press
MSL
hPa
Rain
since 9 am
mm
Dir
 
Spd
km/h
Gust
km/h
Spd
kts
Gust
kts
23/11:30pm 10.3 3.2 8.1 86 1.1 NE 35 44 19 24 1005.6 1005.6 7.0
23/11:00pm 10.2 2.7 8.0 86 1.1 NE 37 44 20 24 1006.1 - 7.0
23/10:30pm 10.3 2.8 8.1 86 1.1 NE 37 46 20 25 1006.9 1006.9 6.6
23/10:00pm 10.4 2.2 8.0 85 1.2 NE 41 52 22 28 1007.3 - 6.0
23/09:30pm 10.4 1.5 7.8 84 1.3 NE 44 56 24 30 1007.0 1007.0 6.0
23/09:00pm 10.4 3.7 8.2 86 1.1 ENE 33 48 18 26 1008.3 1008.3 5.8
23/08:30pm 10.4 2.2 8.0 85 1.2 NE 41 54 22 29 1008.2 1008.2 5.6
23/08:00pm 10.3 2.7 7.7 84 1.3 NE 37 46 20 25 1008.6 - 5.6
23/07:30pm 10.4 3.0 8.2 86 1.1 NE 37 46 20 25 1008.8 1008.8 5.6
23/07:00pm 10.8 4.2 8.7 87 1.0 NE 33 43 18 23 1009.1 - 5.6
23/06:30pm 11.4 4.9 8.8 84 1.3 NNE 33 43 18 23 1009.4 1009.4 5.4
23/06:00pm 11.3 4.9 8.5 83 1.4 NE 32 39 17 21 1009.0 1009.0 5.4
23/05:30pm 11.8 4.1 8.5 80 1.6 NNE 39 46 21 25 1009.1 1009.1 5.4
23/05:01pm 11.9 6.0 8.9 82 1.5 NE 30 52 16 28 1009.3 - 5.4
23/05:00pm 11.7 5.8 8.9 83 1.4 NE 30 37 16 20 1009.3 - 5.4
23/04:30pm 11.7 5.3 8.7 82 1.5 NE 32 41 17 22 1009.3 1009.3 5.4
23/04:00pm 11.6 4.6 8.6 82 1.5 NE 35 44 19 24 1009.5 - 5.0
23/03:30pm 11.4 4.5 9.0 85 1.2 ENE 35 48 19 26 1009.1 1009.1 5.0
23/03:00pm 12.2 4.5 8.7 79 1.7 ENE 39 48 21 26 1009.2 1009.2 4.8
23/02:38pm 12.1 4.1 9.1 82 1.5 ENE 41 59 22 32 1009.6 - 4.8
23/02:30pm 12.0 3.0 8.8 81 1.6 ENE 46 57 25 31 1009.9 1009.9 4.8
23/02:00pm 12.1 3.5 8.9 81 1.6 ENE 44 56 24 30 1009.9 - 4.8
23/01:30pm 11.5 4.0 9.4 87 1.1 ENE 39 52 21 28 1010.3 1010.3 4.8
23/01:00pm 10.7 3.9 9.3 91 0.7 ENE 35 44 19 24 1011.4 - 4.8
23/12:30pm 11.3 6.4 9.9 91 0.7 ENE 26 33 14 18 1012.7 1012.7 4.8
23/12:00pm 10.9 6.3 9.7 92 0.6 NE 24 33 13 18 1013.8 1013.8 4.6
23/11:30am 10.9 7.1 9.7 92 0.6 NE 20 26 11 14 1015.1 1015.1 3.8
23/11:00am 10.3 5.5 8.9 91 0.7 NNE 24 28 13 15 1015.4 - 2.4
23/10:30am 10.3 4.5 8.1 86 1.1 N 28 35 15 19 1016.8 1016.8 0.8
23/10:00am 11.5 7.1 7.4 76 2.0 N 20 26 11 14 1016.8 - 0.0
23/09:30am 11.9 7.5 6.4 69 2.6 NNE 19 24 10 13 1016.6 1016.6 0.0
23/09:00am 11.8 7.2 6.5 70 2.5 NNE 20 28 11 15 1016.5 1016.5 0.0
23/08:30am 10.9 6.3 6.6 75 2.0 ENE 20 24 11 13 1016.5 1016.5 0.0
23/08:00am 10.8 5.8 6.6 75 2.0 ENE 22 28 12 15 1016.5 - 0.0
23/07:30am 10.1 5.2 7.0 81 1.5 E 22 28 12 15 1016.3 1016.3 0.0
23/07:00am 10.1 5.6 7.0 81 1.5 E 20 26 11 14 1016.2 - 0.0
23/06:30am 10.2 5.7 6.9 80 1.6 E 20 26 11 14 1016.3 1016.3 0.0
23/06:00am 10.2 5.3 6.7 79 1.6 E 22 26 12 14 1016.1 1016.1 0.0
23/05:30am 10.6 5.5 5.8 72 2.2 ENE 22 28 12 15 1016.2 1016.2 0.0
23/05:00am 11.7 6.3 4.4 61 3.3 NE 22 28 12 15 1016.3 - 0.0
23/04:30am 11.4 5.6 4.4 62 3.2 NE 24 30 13 16 1016.3 1016.3 0.0
23/04:00am 11.5 5.3 4.5 62 3.2 NE 26 33 14 18 1016.5 - 0.0
23/03:30am 11.5 4.9 4.3 61 3.2 NE 28 33 15 18 1017.0 1017.0 0.0
23/03:00am 11.3 4.3 4.3 62 3.1 NE 30 35 16 19 1017.3 1017.3 0.0
23/02:30am 11.2 4.2 4.2 62 3.1 NE 30 39 16 21 1017.5 1017.5 0.0
23/02:00am 11.1 4.2 4.6 64 2.9 ENE 30 39 16 21 1017.7 - 0.0
23/01:30am 10.8 4.4 5.1 68 2.6 ENE 28 33 15 18 1018.0 1018.0 0.0
23/01:00am 10.7 4.4 5.5 70 2.4 ENE 28 32 15 17 1018.1 - 0.0
23/12:30am 10.7 4.4 5.5 70 2.4 ENE 28 32 15 17 1018.3 1018.3 0.0
23/12:00am 10.3 4.5 6.3 76 1.9 ENE 26 30 14 16 1018.7 1018.8 0.0
 
Date/Time
CST
Temp
°C
App
Temp
°C
Dew
Point
Rel
Hum
%
Delta-T
°C
Wind Press
QNH
hPa
Press
MSL
hPa
Rain
since 9 am
mm
Dir
 
Spd
km/h
Gust
km/h
Spd
kts
Gust
kts
22/11:30pm 10.6 5.0 7.1 79 1.7 ENE 26 30 14 16 1019.2 1019.3 0.0
22/11:00pm 10.5 5.8 7.7 83 1.3 ENE 22 28 12 15 1019.6 - 0.0
22/10:30pm 9.8 5.1 7.9 88 0.9 E 22 26 12 14 1019.5 1019.6 0.0
22/10:00pm 9.8 5.2 8.1 89 0.8 E 22 26 12 14 1019.6 - 0.0
22/09:30pm 9.2 4.4 7.5 89 0.8 E 22 24 12 13 1019.9 1020.0 0.0
22/09:00pm 8.9 4.0 6.9 87 0.9 E 22 26 12 14 1020.0 1020.1 0.0
22/08:30pm 9.5 4.5 6.6 82 1.3 E 22 26 12 14 1020.1 1020.2 0.0
22/08:00pm 8.5 4.0 6.1 85 1.1 E 19 20 10 11 1020.2 - 0.0
22/07:30pm 8.5 3.8 6.0 84 1.1 E 20 22 11 12 1020.3 1020.4 0.0
22/07:00pm 8.6 3.9 6.2 85 1.1 E 20 22 11 12 1020.3 - 0.0
22/06:30pm 9.1 4.7 6.5 84 1.2 ENE 19 20 10 11 1020.4 1020.5 0.0
22/06:00pm 9.6 5.4 7.4 86 1.0 E 19 20 10 11 1020.3 1020.4 0.0
22/05:30pm 10.8 8.1 7.3 79 1.7 ENE 11 15 6 8 1020.3 1020.4 0.0
22/05:00pm 13.2 10.4 8.7 74 2.3 E 13 17 7 9 1020.3 - 0.0
22/04:30pm 15.6 14.9 8.6 63 3.6 SSW 2 7 1 4 1020.0 1020.1 0.0

Other Formats:

Comma delimited format used in spreadsheet applications
http://www.bom.gov.au/fwo/IDS60801/IDS60801.95659.axf

JavaScript Object Notation format (JSON) in row-major order
http://www.bom.gov.au/fwo/IDS60801/IDS60801.95659.json